Time;durP1;ratioP1;P1;durP2;ratioP2;P2;SDS_P1;SDS_P2;PMS_P1;PMS_P2;Temp;Humidity;BMP_temperature;BMP_pressure;BME280_temperature;BME280_humidity;BME280_pressure;Samples;Min_cycle;Max_cycle;Signal;HPM_P1;HPM_P2
2021/12/31 00:02:08;;;;;;;;;;;;;;;-4.28;100.00;99393.41;1626465;88;20174;-69
2021/12/31 00:04:39;;;;;;;;;;;;;;;-4.26;100.00;99383.28;1626655;88;20121;-70
2021/12/31 00:07:13;;;;;;;;;;;;;;;-4.27;100.00;99385.67;1620823;88;20129;-71
2021/12/31 00:09:47;;;;;;;;;;;;;;;-4.25;100.00;99388.94;1626641;88;20120;-70
2021/12/31 00:12:22;;;;;;;;;;;;;;;-4.25;100.00;99383.59;1605717;88;20125;-70
2021/12/31 00:15:14;;;;;;;;;;;;;;;-4.23;100.00;99373.98;1625927;88;20132;-69
2021/12/31 00:17:29;;;;;;;;;;;;;;;-4.23;100.00;99371.30;1597131;88;20472;-71
2021/12/31 00:20:07;;;;;;;;;;;;;;;-4.22;100.00;99371.59;1626224;88;20081;-72
2021/12/31 00:25:19;;;;;;;;;;;;;;;-4.17;100.00;99358.34;1619380;88;21805;-72
2021/12/31 00:27:54;;;;;;;;;;;;;;;-4.14;100.00;99371.30;1605983;88;20148;-70
2021/12/31 00:30:24;;;;;;;;;;;;;;;-4.14;100.00;99370.77;1606301;88;20251;-70
2021/12/31 00:32:54;;;;;;;;;;;;;;;-4.13;100.00;99370.25;1606381;88;20092;-70
2021/12/31 00:35:20;;;;;;;;;;;;;;;-4.13;100.00;99361.69;1625874;88;20439;-72
2021/12/31 00:37:55;;;;;;;;;;;;;;;-4.11;100.00;99357.44;1625666;88;21180;-70
2021/12/31 00:40:26;;;;;;;;;;;;;;;-4.09;100.00;99364.22;1626030;88;20133;-70
2021/12/31 00:42:56;;;;;;;;;;;;;;;-4.07;100.00;99360.79;1606132;87;20105;-69
2021/12/31 00:45:30;;;;;;;;;;;;;;;-4.04;100.00;99355.47;1626021;88;20194;-70
2021/12/31 00:47:57;;;;;;;;;;;;;;;-4.02;100.00;99354.72;1626360;87;20415;-70
2021/12/31 00:50:28;;;;;;;;;;;;;;;-4.02;100.00;99352.86;1625718;88;21994;-71
2021/12/31 00:52:56;;;;;;;;;;;;;;;-4.03;100.00;99345.86;1625780;88;20097;-72
2021/12/31 00:55:28;;;;;;;;;;;;;;;-4.03;100.00;99337.00;1604450;88;20177;-72
2021/12/31 00:57:59;;;;;;;;;;;;;;;-4.05;100.00;99339.94;1625983;88;20617;-72
2021/12/31 01:00:29;;;;;;;;;;;;;;;-4.05;100.00;99335.91;1625869;88;20431;-71
2021/12/31 01:03:02;;;;;;;;;;;;;;;-4.04;100.00;99330.81;1626778;88;21152;-71
2021/12/31 01:05:30;;;;;;;;;;;;;;;-4.03;100.00;99324.41;1626343;88;20117;-71
2021/12/31 01:08:03;;;;;;;;;;;;;;;-4.01;100.00;99322.84;1623425;88;20108;-73
2021/12/31 01:10:38;;;;;;;;;;;;;;;-4.00;100.00;99314.57;1605735;88;20093;-72
2021/12/31 01:13:13;;;;;;;;;;;;;;;-4.00;100.00;99315.91;1606455;88;20475;-72
2021/12/31 01:20:40;;;;;;;;;;;;;;;-3.94;100.00;99317.39;1626577;88;20457;-72
2021/12/31 01:23:11;;;;;;;;;;;;;;;-3.94;100.00;99316.87;1606068;88;20152;-72
2021/12/31 01:25:42;;;;;;;;;;;;;;;-3.92;100.00;99325.50;1625604;88;20153;-72
2021/12/31 01:28:22;;;;;;;;;;;;;;;-3.89;100.00;99321.55;1605758;88;20611;-72
2021/12/31 01:30:52;;;;;;;;;;;;;;;-3.88;100.00;99317.30;1626509;88;20132;-73
2021/12/31 01:33:22;;;;;;;;;;;;;;;-3.86;100.00;99312.53;1605856;88;20129;-72
2021/12/31 01:35:50;;;;;;;;;;;;;;;-3.84;100.00;99306.41;1625737;88;20157;-72
2021/12/31 01:38:32;;;;;;;;;;;;;;;-3.82;100.00;99304.32;1625898;88;20156;-72
2021/12/31 01:40:50;;;;;;;;;;;;;;;-3.81;100.00;99303.28;1621369;87;21211;-72
2021/12/31 01:43:22;;;;;;;;;;;;;;;-3.79;100.00;99302.52;1625536;88;20163;-70
2021/12/31 01:45:55;;;;;;;;;;;;;;;-3.75;100.00;99297.52;1626017;88;20144;-68
2021/12/31 01:48:34;;;;;;;;;;;;;;;-3.73;100.00;99290.06;1605660;88;20451;-68
2021/12/31 01:50:57;;;;;;;;;;;;;;;-3.72;100.00;99285.81;1625881;88;20448;-73
2021/12/31 01:53:32;;;;;;;;;;;;;;;-3.71;100.00;99266.51;1625925;88;21235;-71
2021/12/31 01:56:00;;;;;;;;;;;;;;;-3.71;100.00;99268.67;1626549;88;20125;-70
2021/12/31 01:58:29;;;;;;;;;;;;;;;-3.70;100.00;99265.46;1650347;85;20171;-69
2021/12/31 02:01:03;;;;;;;;;;;;;;;-3.69;100.00;99265.75;1647087;86;20090;-69
2021/12/31 02:03:33;;;;;;;;;;;;;;;-3.69;100.00;99261.20;1628102;87;20126;-69
2021/12/31 02:06:08;;;;;;;;;;;;;;;-3.67;100.00;99259.11;1645814;87;21103;-69
2021/12/31 02:08:37;;;;;;;;;;;;;;;-3.66;100.00;99258.06;1645526;86;20464;-69
2021/12/31 02:11:10;;;;;;;;;;;;;;;-3.63;100.00;99247.39;1638311;87;20090;-68
2021/12/31 02:13:41;;;;;;;;;;;;;;;-3.61;100.00;99249.33;1632074;87;20121;-68
2021/12/31 02:16:12;;;;;;;;;;;;;;;-3.60;100.00;99246.94;1625266;88;20132;-68
2021/12/31 02:18:43;;;;;;;;;;;;;;;-3.57;100.00;99248.34;1625042;88;20147;-68
2021/12/31 02:21:20;;;;;;;;;;;;;;;-3.55;100.00;99247.06;1605157;88;20140;-69
2021/12/31 02:23:48;;;;;;;;;;;;;;;-3.55;100.00;99245.72;1624823;88;20096;-68
2021/12/31 02:26:23;;;;;;;;;;;;;;;-3.54;100.00;99248.70;1625289;88;20108;-71
2021/12/31 02:28:57;;;;;;;;;;;;;;;-3.52;100.00;99251.97;1632666;85;20106;-71
2021/12/31 02:31:27;;;;;;;;;;;;;;;-3.49;100.00;99256.05;1649817;87;21507;-71
2021/12/31 02:34:03;;;;;;;;;;;;;;;-3.47;100.00;99253.95;1647375;86;20143;-71
2021/12/31 02:36:30;;;;;;;;;;;;;;;-3.45;100.00;99260.70;1642455;87;20158;-70
2021/12/31 02:38:59;;;;;;;;;;;;;;;-3.42;100.00;99248.68;1639132;87;20804;-70
2021/12/31 02:41:28;;;;;;;;;;;;;;;-3.40;100.00;99247.40;1639285;87;20205;-71
2021/12/31 02:43:59;;;;;;;;;;;;;;;-3.35;100.00;99244.02;1637877;87;21228;-71
2021/12/31 02:46:31;;;;;;;;;;;;;;;-3.32;100.00;99245.72;1612706;87;20130;-72
2021/12/31 02:49:01;;;;;;;;;;;;;;;-3.27;100.00;99242.33;1621341;87;20090;-69
2021/12/31 02:51:29;;;;;;;;;;;;;;;-3.24;100.00;99241.86;1653203;86;21855;-68
2021/12/31 02:53:58;;;;;;;;;;;;;;;-3.20;100.00;99239.53;1649967;85;20110;-69
2021/12/31 02:56:26;;;;;;;;;;;;;;;-3.14;100.00;99238.59;1646434;87;22180;-68
2021/12/31 02:59:01;;;;;;;;;;;;;;;-3.10;100.00;99241.11;1652730;85;20149;-69
2021/12/31 03:01:24;;;;;;;;;;;;;;;-3.06;100.00;99242.27;1648784;86;20131;-68
2021/12/31 03:03:51;;;;;;;;;;;;;;;-3.02;100.00;99236.72;1651047;86;20161;-68
2021/12/31 03:06:21;;;;;;;;;;;;;;;-2.97;100.00;99231.46;1649674;87;20109;-70
2021/12/31 03:08:52;;;;;;;;;;;;;;;-2.93;100.00;99232.63;1645749;86;20725;-69
2021/12/31 03:13:55;;;;;;;;;;;;;;;-2.84;100.00;99220.44;1616440;87;20143;-69
2021/12/31 03:16:29;;;;;;;;;;;;;;;-2.80;100.00;99217.56;1636257;86;20117;-70
2021/12/31 03:18:56;;;;;;;;;;;;;;;-2.76;100.00;99222.76;1648591;86;20191;-70
2021/12/31 03:21:25;;;;;;;;;;;;;;;-2.71;100.00;99224.20;1642009;87;22021;-71
2021/12/31 03:23:54;;;;;;;;;;;;;;;-2.67;100.00;99225.89;1631369;85;20124;-69
2021/12/31 03:26:24;;;;;;;;;;;;;;;-2.63;100.00;99230.27;1637680;86;20228;-69
2021/12/31 03:28:57;;;;;;;;;;;;;;;-2.60;100.00;99231.14;1643794;86;20103;-72
2021/12/31 03:31:29;;;;;;;;;;;;;;;-2.57;100.00;99229.31;1641208;85;20454;-70
2021/12/31 03:34:10;;;;;;;;;;;;;;;-2.52;100.00;99224.05;1642436;87;21147;-69
2021/12/31 03:36:36;;;;;;;;;;;;;;;-2.48;100.00;99224.67;1648736;86;20481;-70
2021/12/31 03:39:16;;;;;;;;;;;;;;;-2.43;100.00;99219.92;1625075;87;20115;-70
2021/12/31 03:41:45;;;;;;;;;;;;;;;-2.40;100.00;99211.38;1625221;87;20199;-69
2021/12/31 03:44:15;;;;;;;;;;;;;;;-2.37;100.00;99205.53;1646072;86;20126;-69
2021/12/31 03:46:47;;;;;;;;;;;;;;;-2.34;100.00;99207.21;1620627;87;20102;-67
2021/12/31 03:49:15;;;;;;;;;;;;;;;-2.32;100.00;99199.44;1646319;85;20130;-68
2021/12/31 03:51:41;;;;;;;;;;;;;;;-2.29;100.00;99203.77;1645749;87;20146;-68
2021/12/31 03:54:10;;;;;;;;;;;;;;;-2.27;100.00;99198.16;1646107;87;20262;-68
2021/12/31 03:56:38;;;;;;;;;;;;;;;-2.24;100.00;99199.02;1624892;87;20509;-68
2021/12/31 03:59:11;;;;;;;;;;;;;;;-2.22;100.00;99199.59;1645653;87;21167;-68
2021/12/31 04:01:44;;;;;;;;;;;;;;;-2.19;100.00;99195.89;1645444;86;20143;-67
2021/12/31 04:04:17;;;;;;;;;;;;;;;-2.16;100.00;99199.98;1645546;87;20124;-67
2021/12/31 04:06:45;;;;;;;;;;;;;;;-2.14;100.00;99201.89;1619139;87;20148;-69
2021/12/31 04:09:21;;;;;;;;;;;;;;;-2.13;100.00;99196.80;1642791;87;20120;-68
2021/12/31 04:11:51;;;;;;;;;;;;;;;-2.11;100.00;99188.78;1628022;86;20479;-70
2021/12/31 04:14:22;;;;;;;;;;;;;;;-2.07;100.00;99189.11;1621667;85;20217;-71
2021/12/31 04:16:52;;;;;;;;;;;;;;;-2.06;100.00;99179.45;1639870;87;20163;-72
2021/12/31 04:19:26;;;;;;;;;;;;;;;-2.03;100.00;99181.66;1632340;86;20176;-69
2021/12/31 04:21:53;;;;;;;;;;;;;;;-2.01;100.00;99180.08;1639831;86;20164;-69
2021/12/31 04:24:52;;;;;;;;;;;;;;;-1.98;100.00;99176.09;1622031;84;20561;-70
2021/12/31 04:27:01;;;;;;;;;;;;;;;-1.95;100.00;99178.29;1617351;87;20087;-69
2021/12/31 04:29:33;;;;;;;;;;;;;;;-1.92;100.00;99173.77;1628360;87;20158;-70
2021/12/31 04:32:00;;;;;;;;;;;;;;;-1.90;100.00;99174.34;1611746;88;20232;-76
2021/12/31 04:34:30;;;;;;;;;;;;;;;-1.90;100.00;99171.13;1626124;85;20148;-72
2021/12/31 04:37:01;;;;;;;;;;;;;;;-1.88;100.00;99166.84;1647203;86;21193;-70
2021/12/31 04:39:25;;;;;;;;;;;;;;;-1.86;100.00;99158.00;1644640;87;20123;-71
2021/12/31 04:41:51;;;;;;;;;;;;;;;-1.82;100.00;99157.80;1648922;87;20162;-71
2021/12/31 04:44:19;;;;;;;;;;;;;;;-1.80;100.00;99157.84;1645187;86;20102;-71
2021/12/31 04:46:47;;;;;;;;;;;;;;;-1.77;100.00;99160.56;1648855;86;20139;-69
2021/12/31 04:49:23;;;;;;;;;;;;;;;-1.75;100.00;99157.92;1631080;87;20102;-69
2021/12/31 04:51:54;;;;;;;;;;;;;;;-1.72;100.00;99155.23;1646661;86;20099;-69
2021/12/31 04:54:23;;;;;;;;;;;;;;;-1.70;100.00;99158.50;1646241;86;20119;-69
2021/12/31 04:56:53;;;;;;;;;;;;;;;-1.67;100.00;99162.05;1624758;87;20102;-70
2021/12/31 04:59:26;;;;;;;;;;;;;;;-1.64;100.00;99155.36;1654677;86;20126;-69
2021/12/31 05:01:53;;;;;;;;;;;;;;;-1.63;100.00;99152.42;1634513;86;21134;-69
2021/12/31 05:04:23;;;;;;;;;;;;;;;-1.60;100.00;99150.58;1628712;86;20492;-66
2021/12/31 05:06:56;;;;;;;;;;;;;;;-1.56;100.00;99151.72;1629965;86;20157;-65
2021/12/31 05:09:27;;;;;;;;;;;;;;;-1.51;100.00;99147.76;1631067;87;20590;-68
2021/12/31 05:11:53;;;;;;;;;;;;;;;-1.46;100.00;99150.53;1641106;86;20175;-68
2021/12/31 05:14:26;;;;;;;;;;;;;;;-1.42;100.00;99148.16;1648540;85;23275;-69
2021/12/31 05:16:51;;;;;;;;;;;;;;;-1.41;100.00;99151.95;1649109;85;20125;-69
2021/12/31 05:19:27;;;;;;;;;;;;;;;-1.39;100.00;99144.97;1640547;86;20437;-70
2021/12/31 05:21:54;;;;;;;;;;;;;;;-1.38;100.00;99148.77;1649995;86;20155;-68
2021/12/31 05:24:26;;;;;;;;;;;;;;;-1.37;100.00;99151.73;1644524;86;20163;-69
2021/12/31 05:26:58;;;;;;;;;;;;;;;-1.34;100.00;99141.82;1649501;86;21174;-68
2021/12/31 05:29:29;;;;;;;;;;;;;;;-1.31;100.00;99143.73;1647236;86;20452;-68
2021/12/31 05:32:00;;;;;;;;;;;;;;;-1.28;100.00;99140.55;1644915;86;20150;-69
2021/12/31 05:34:25;;;;;;;;;;;;;;;-1.27;100.00;99138.14;1645705;86;20115;-69
2021/12/31 05:36:53;;;;;;;;;;;;;;;-1.27;100.00;99148.37;1645668;87;20429;-66
2021/12/31 05:39:20;;;;;;;;;;;;;;;-1.27;100.00;99144.87;1642390;86;21041;-65
2021/12/31 05:41:48;;;;;;;;;;;;;;;-1.26;100.00;99144.62;1641947;86;20111;-67
2021/12/31 05:44:22;;;;;;;;;;;;;;;-1.24;100.00;99143.02;1627344;87;20103;-66
2021/12/31 05:46:53;;;;;;;;;;;;;;;-1.25;100.00;99146.25;1624189;87;20130;-67
2021/12/31 05:49:21;;;;;;;;;;;;;;;-1.25;100.00;99154.33;1646945;86;20175;-66
2021/12/31 05:51:52;;;;;;;;;;;;;;;-1.25;100.00;99150.82;1644262;86;20165;-67
2021/12/31 05:54:20;;;;;;;;;;;;;;;-1.24;100.00;99142.49;1651364;86;20135;-67
2021/12/31 05:56:53;;;;;;;;;;;;;;;-1.23;100.00;99133.88;1634486;86;20512;-65
2021/12/31 05:59:25;;;;;;;;;;;;;;;-1.22;100.00;99139.02;1637484;87;20200;-66
2021/12/31 06:02:00;;;;;;;;;;;;;;;-1.18;100.00;99137.98;1637835;86;20106;-66
2021/12/31 06:04:29;;;;;;;;;;;;;;;-1.14;100.00;99140.44;1648449;86;20442;-65
2021/12/31 06:06:58;;;;;;;;;;;;;;;-1.08;100.00;99133.52;1640537;86;20264;-67
2021/12/31 06:09:26;;;;;;;;;;;;;;;-1.07;100.00;99140.55;1637577;86;20107;-66
2021/12/31 06:12:02;;;;;;;;;;;;;;;-1.07;100.00;99144.58;1632866;86;20133;-68
2021/12/31 06:14:31;;;;;;;;;;;;;;;-1.10;100.00;99150.47;1637255;86;20507;-67
2021/12/31 06:17:06;;;;;;;;;;;;;;;-1.13;100.00;99153.66;1628972;85;20126;-66
2021/12/31 06:19:32;;;;;;;;;;;;;;;-1.14;100.00;99154.72;1605391;88;20130;-66
2021/12/31 06:22:06;;;;;;;;;;;;;;;-1.14;100.00;99154.72;1621553;86;20156;-67
2021/12/31 06:24:32;;;;;;;;;;;;;;;-1.13;100.00;99167.12;1647814;86;20146;-66
2021/12/31 06:27:03;;;;;;;;;;;;;;;-1.12;100.00;99163.91;1650070;86;20234;-66
2021/12/31 06:29:35;;;;;;;;;;;;;;;-1.10;100.00;99159.08;1652180;86;21791;-66
2021/12/31 06:32:02;;;;;;;;;;;;;;;-1.08;100.00;99155.61;1651885;86;20078;-67
2021/12/31 06:34:30;;;;;;;;;;;;;;;-1.06;100.00;99161.56;1649766;86;20126;-66
2021/12/31 06:37:00;;;;;;;;;;;;;;;-1.02;100.00;99170.24;1649568;86;20435;-66
2021/12/31 06:39:35;;;;;;;;;;;;;;;-0.97;100.00;99165.98;1599903;87;20101;-67
2021/12/31 06:42:07;;;;;;;;;;;;;;;-0.95;100.00;99153.89;1654183;86;21189;-67
2021/12/31 06:44:36;;;;;;;;;;;;;;;-0.93;100.00;99147.72;1648552;86;20118;-67
2021/12/31 06:47:08;;;;;;;;;;;;;;;-0.91;100.00;99146.94;1622185;88;20467;-66
2021/12/31 06:49:36;;;;;;;;;;;;;;;-0.89;100.00;99147.50;1604268;88;20155;-67
2021/12/31 06:52:08;;;;;;;;;;;;;;;-0.87;100.00;99149.41;1622876;88;20116;-66
2021/12/31 06:54:36;;;;;;;;;;;;;;;-0.83;100.00;99155.94;1624553;87;21171;-67
2021/12/31 06:57:05;;;;;;;;;;;;;;;-0.80;100.00;99156.78;1628473;87;20463;-67
2021/12/31 06:59:33;;;;;;;;;;;;;;;-0.78;100.00;99158.69;1630309;85;20188;-67
2021/12/31 07:02:04;;;;;;;;;;;;;;;-0.73;100.00;99163.33;1622857;88;21151;-67
2021/12/31 07:04:34;;;;;;;;;;;;;;;-0.68;100.00;99160.70;1619818;87;20418;-71
2021/12/31 07:07:09;;;;;;;;;;;;;;;-0.67;100.00;99160.98;1623816;86;21122;-71
2021/12/31 07:09:37;;;;;;;;;;;;;;;-0.64;100.00;99161.83;1639298;86;20107;-70
2021/12/31 07:12:09;;;;;;;;;;;;;;;-0.61;100.00;99168.06;1651110;85;20102;-71
2021/12/31 07:14:45;;;;;;;;;;;;;;;-0.58;100.00;99165.39;1652668;86;20166;-70
2021/12/31 07:17:12;;;;;;;;;;;;;;;-0.56;100.00;99173.48;1648945;86;20100;-71
2021/12/31 07:19:47;;;;;;;;;;;;;;;-0.52;100.00;99168.40;1671715;85;21518;-71
2021/12/31 07:22:15;;;;;;;;;;;;;;;-0.49;100.00;99174.64;1677828;85;20152;-71
2021/12/31 07:24:44;;;;;;;;;;;;;;;-0.48;100.00;99175.73;1658058;85;32450;-71
2021/12/31 07:27:31;;;;;;;;;;;;;;;-0.46;100.00;99179.52;1638454;86;20101;-70
2021/12/31 07:29:44;;;;;;;;;;;;;;;-0.44;100.00;99172.00;1649829;85;20433;-71
2021/12/31 07:32:12;;;;;;;;;;;;;;;-0.42;100.00;99180.12;1618959;86;20185;-71
2021/12/31 07:34:48;;;;;;;;;;;;;;;-0.40;100.00;99175.28;1630508;86;20123;-70
2021/12/31 07:37:19;;;;;;;;;;;;;;;-0.37;100.00;99176.66;1622728;85;20101;-71
2021/12/31 07:39:48;;;;;;;;;;;;;;;-0.37;100.00;99169.92;1634167;86;20098;-82
2021/12/31 07:42:15;;;;;;;;;;;;;;;-0.37;100.00;99170.73;1670959;84;20133;-77
2021/12/31 07:44:45;;;;;;;;;;;;;;;-0.35;100.00;99167.78;1627946;86;20082;-78
2021/12/31 07:47:14;;;;;;;;;;;;;;;-0.35;100.00;99171.83;1625062;86;20106;-76
2021/12/31 07:49:43;;;;;;;;;;;;;;;-0.35;100.00;99177.22;1649644;86;20163;-75
2021/12/31 07:52:13;;;;;;;;;;;;;;;-0.36;100.00;99162.92;1654626;86;20274;-76
2021/12/31 07:54:43;;;;;;;;;;;;;;;-0.36;100.00;99160.77;1638565;86;20423;-76
2021/12/31 07:57:15;;;;;;;;;;;;;;;-0.35;100.00;99162.39;1623518;87;21498;-75
2021/12/31 07:59:41;;;;;;;;;;;;;;;-0.35;100.00;99156.45;1671293;84;20556;-74
2021/12/31 08:02:18;;;;;;;;;;;;;;;-0.31;100.00;99161.34;1646274;86;20119;-77
2021/12/31 08:04:49;;;;;;;;;;;;;;;-0.29;100.00;99161.38;1650830;86;20140;-76
2021/12/31 08:07:16;;;;;;;;;;;;;;;-0.28;100.00;99151.40;1648331;85;20169;-75
2021/12/31 08:09:46;;;;;;;;;;;;;;;-0.26;100.00;99154.66;1642492;85;20138;-74
2021/12/31 08:12:13;;;;;;;;;;;;;;;-0.24;100.00;99164.66;1629310;87;20460;-74
2021/12/31 08:14:39;;;;;;;;;;;;;;;-0.22;100.00;99168.73;1667428;84;20260;-74
2021/12/31 08:17:12;;;;;;;;;;;;;;;-0.20;100.00;99172.52;1648180;86;20216;-74
2021/12/31 08:19:42;;;;;;;;;;;;;;;-0.19;100.00;99169.58;1645009;86;20239;-74
2021/12/31 08:22:14;;;;;;;;;;;;;;;-0.19;100.00;99166.88;1648711;86;21190;-74
2021/12/31 08:24:42;;;;;;;;;;;;;;;-0.19;100.00;99162.83;1628416;85;20407;-78
2021/12/31 08:27:17;;;;;;;;;;;;;;;-0.19;100.00;99161.48;1652783;86;20443;-73
2021/12/31 08:29:44;;;;;;;;;;;;;;;-0.19;100.00;99153.39;1648184;86;20090;-76
2021/12/31 08:32:12;;;;;;;;;;;;;;;-0.17;100.00;99159.34;1649350;86;20136;-75
2021/12/31 08:34:44;;;;;;;;;;;;;;;-0.15;100.00;99159.91;1629430;87;20115;-73
2021/12/31 08:37:14;;;;;;;;;;;;;;;-0.15;100.00;99155.86;1647408;86;20209;-74
2021/12/31 08:39:44;;;;;;;;;;;;;;;-0.11;100.00;99163.72;1636332;86;20162;-72
2021/12/31 08:42:15;;;;;;;;;;;;;;;-0.08;100.00;99157.81;1656435;86;20844;-73
2021/12/31 08:44:46;;;;;;;;;;;;;;;-0.04;100.00;99154.06;1611482;87;20139;-73
2021/12/31 08:47:13;;;;;;;;;;;;;;;-0.02;100.00;99164.88;1615141;87;20590;-72
2021/12/31 08:49:48;;;;;;;;;;;;;;;-0.01;100.00;99162.47;1627653;87;20295;-71
2021/12/31 08:52:21;;;;;;;;;;;;;;;0.03;100.00;99167.32;1621392;87;20156;-71
2021/12/31 08:54:51;;;;;;;;;;;;;;;0.05;100.00;99159.78;1623454;87;20180;-73
2021/12/31 08:57:21;;;;;;;;;;;;;;;0.08;100.00;99161.44;1624332;87;20135;-71
2021/12/31 08:59:54;;;;;;;;;;;;;;;0.13;100.00;99154.73;1624834;87;22324;-72
2021/12/31 09:02:19;;;;;;;;;;;;;;;0.18;100.00;99158.02;1624819;87;20459;-72
2021/12/31 09:04:46;;;;;;;;;;;;;;;0.23;100.00;99151.30;1626799;87;20102;-73
2021/12/31 09:07:13;;;;;;;;;;;;;;;0.25;100.00;99156.72;1624444;87;20172;-69
2021/12/31 09:09:39;;;;;;;;;;;;;;;0.30;100.00;99151.36;1631778;86;20831;-69
2021/12/31 09:12:08;;;;;;;;;;;;;;;0.35;100.00;99151.12;1665073;83;21131;-69
2021/12/31 09:14:34;;;;;;;;;;;;;;;0.41;100.00;99138.75;1634992;86;20121;-69
2021/12/31 09:17:02;;;;;;;;;;;;;;;0.48;100.00;99139.34;1623593;88;20130;-69
2021/12/31 09:19:28;;;;;;;;;;;;;;;0.55;100.00;99138.59;1624391;88;20102;-72
2021/12/31 09:21:55;;;;;;;;;;;;;;;0.61;100.00;99132.11;1622552;87;20115;-69
2021/12/31 09:24:22;;;;;;;;;;;;;;;0.63;100.00;99129.96;1623572;87;22253;-69
2021/12/31 09:26:49;;;;;;;;;;;;;;;0.65;100.00;99126.47;1624134;88;20465;-68
2021/12/31 09:29:18;;;;;;;;;;;;;;;0.69;100.00;99128.11;1623725;87;20120;-68
2021/12/31 09:31:45;;;;;;;;;;;;;;;0.72;100.00;99126.23;1620899;88;20621;-69
2021/12/31 09:34:12;;;;;;;;;;;;;;;0.77;100.00;99127.62;1623884;88;20152;-72
2021/12/31 09:36:38;;;;;;;;;;;;;;;0.81;100.00;99124.66;1623705;88;21094;-69
2021/12/31 09:39:05;;;;;;;;;;;;;;;0.86;100.00;99125.23;1623442;88;20120;-70
2021/12/31 09:41:31;;;;;;;;;;;;;;;0.89;100.00;99123.36;1644875;85;20092;-70
2021/12/31 09:44:00;;;;;;;;;;;;;;;0.93;100.00;99121.75;1638509;85;20162;-70
2021/12/31 09:46:26;;;;;;;;;;;;;;;0.96;100.00;99127.98;1636598;86;20201;-74
2021/12/31 09:48:53;;;;;;;;;;;;;;;0.99;100.00;99120.17;1637303;86;21165;-72
2021/12/31 09:51:20;;;;;;;;;;;;;;;1.03;100.00;99115.58;1636095;86;21480;-71
2021/12/31 09:53:46;;;;;;;;;;;;;;;1.05;100.00;99114.24;1633369;87;20494;-74
2021/12/31 09:56:15;;;;;;;;;;;;;;;1.08;100.00;99111.02;1634776;86;20119;-70
2021/12/31 09:58:44;;;;;;;;;;;;;;;1.09;100.00;99112.64;1634355;86;20478;-71
2021/12/31 10:01:10;;;;;;;;;;;;;;;1.11;100.00;99113.73;1636640;87;21856;-70
2021/12/31 10:03:37;;;;;;;;;;;;;;;1.12;100.00;99112.11;1636633;86;20100;-71
2021/12/31 10:06:11;;;;;;;;;;;;;;;1.13;100.00;99116.44;1633860;85;20133;-71
2021/12/31 10:08:42;;;;;;;;;;;;;;;1.17;100.00;99111.29;1634489;85;20171;-71
2021/12/31 10:11:19;;;;;;;;;;;;;;;1.17;100.00;99114.80;1635279;86;20169;-72
2021/12/31 10:14:01;;;;;;;;;;;;;;;1.16;100.00;99118.59;1636529;86;21847;-74
2021/12/31 10:16:30;;;;;;;;;;;;;;;1.17;100.00;99126.16;1631420;86;20429;-74
2021/12/31 10:19:15;;;;;;;;;;;;;;;1.20;100.00;99122.92;1633814;85;20162;-72
2021/12/31 10:21:46;;;;;;;;;;;;;;;1.22;100.00;99118.06;1638679;86;20201;-73
2021/12/31 10:24:34;;;;;;;;;;;;;;;1.26;100.00;99111.05;1635204;85;20142;-72
2021/12/31 10:27:13;;;;;;;;;;;;;;;1.27;100.00;99112.14;1636675;85;21141;-73
2021/12/31 10:29:59;;;;;;;;;;;;;;;1.31;100.00;99109.72;1655259;85;20405;-71
2021/12/31 10:32:29;;;;;;;;;;;;;;;1.32;100.00;99116.21;1658243;85;20450;-72
2021/12/31 10:35:18;;;;;;;;;;;;;;;1.31;100.00;99112.42;1635111;86;20217;-71
2021/12/31 10:37:49;;;;;;;;;;;;;;;1.31;100.00;99102.42;1633870;86;20302;-69
2021/12/31 10:40:41;;;;;;;;;;;;;;;1.34;100.00;99101.08;1627036;87;21204;-67
2021/12/31 10:43:18;;;;;;;;;;;;;;;1.35;100.00;99094.59;1631645;86;20143;-69
2021/12/31 10:46:07;;;;;;;;;;;;;;;1.39;100.00;99091.63;1650252;84;20506;-68
2021/12/31 10:48:50;;;;;;;;;;;;;;;1.42;100.00;99099.20;1658550;83;20130;-69
2021/12/31 10:51:19;;;;;;;;;;;;;;;1.44;100.00;99094.87;1674503;84;20108;-68
2021/12/31 10:53:55;;;;;;;;;;;;;;;1.44;100.00;99092.17;1668282;84;21166;-68
2021/12/31 10:56:14;;;;;;;;;;;;;;;1.43;100.00;99090.55;1647090;84;20201;-69
2021/12/31 10:58:44;;;;;;;;;;;;;;;1.41;100.00;99086.76;1622947;84;20190;-69
2021/12/31 11:01:15;;;;;;;;;;;;;;;1.42;100.00;99083.52;1645527;83;20154;-68
2021/12/31 11:03:42;;;;;;;;;;;;;;;1.44;100.00;99085.41;1664684;84;20459;-69
2021/12/31 11:06:12;;;;;;;;;;;;;;;1.49;100.00;99082.72;1648646;85;21759;-68
2021/12/31 11:08:40;;;;;;;;;;;;;;;1.51;100.00;99083.27;1644909;86;20140;-68
2021/12/31 11:11:08;;;;;;;;;;;;;;;1.53;100.00;99079.22;1640174;86;20124;-68
2021/12/31 11:13:34;;;;;;;;;;;;;;;1.55;100.00;99074.89;1650911;86;20096;-67
2021/12/31 11:16:01;;;;;;;;;;;;;;;1.57;100.00;99068.12;1640592;86;20151;-69
2021/12/31 11:18:27;;;;;;;;;;;;;;;1.58;100.00;99067.05;1649413;85;21181;-69
2021/12/31 11:20:57;;;;;;;;;;;;;;;1.61;100.00;99064.34;1653410;85;20104;-68
2021/12/31 11:23:27;;;;;;;;;;;;;;;1.61;100.00;99059.75;1650189;85;20444;-68
2021/12/31 11:25:59;;;;;;;;;;;;;;;1.62;100.00;99061.38;1651362;86;20245;-69
2021/12/31 11:28:30;;;;;;;;;;;;;;;1.61;100.00;99058.94;1650946;86;20188;-69
2021/12/31 11:30:59;;;;;;;;;;;;;;;1.63;100.00;99060.83;1651045;86;21150;-69
2021/12/31 11:33:28;;;;;;;;;;;;;;;1.63;100.00;99054.06;1651995;86;20116;-68
2021/12/31 11:36:06;;;;;;;;;;;;;;;1.62;100.00;99049.20;1652118;86;20088;-71
2021/12/31 11:38:37;;;;;;;;;;;;;;;1.61;100.00;99047.58;1653936;85;20120;-68
2021/12/31 11:41:08;;;;;;;;;;;;;;;1.62;100.00;99043.78;1650907;86;20088;-68
2021/12/31 11:43:38;;;;;;;;;;;;;;;1.62;100.00;99041.08;1650769;86;21977;-68
2021/12/31 11:46:19;;;;;;;;;;;;;;;1.62;100.00;99042.97;1652197;86;20124;-68
2021/12/31 11:48:51;;;;;;;;;;;;;;;1.62;100.00;99047.03;1638531;86;20173;-68
2021/12/31 11:51:34;;;;;;;;;;;;;;;1.59;100.00;99032.69;1637691;86;20106;-75
2021/12/31 11:54:06;;;;;;;;;;;;;;;1.60;100.00;99035.66;1622328;87;20126;-69
2021/12/31 11:56:45;;;;;;;;;;;;;;;1.59;100.00;99035.39;1625965;87;20107;-71
2021/12/31 11:59:24;;;;;;;;;;;;;;;1.56;100.00;99038.09;1623547;87;20102;-71
2021/12/31 12:01:52;;;;;;;;;;;;;;;1.54;100.00;99032.14;1625252;87;20130;-71
2021/12/31 12:04:23;;;;;;;;;;;;;;;1.53;100.00;99036.47;1623917;87;20440;-70
2021/12/31 12:07:01;;;;;;;;;;;;;;;1.55;100.00;99035.66;1632201;85;20171;-70
2021/12/31 12:09:45;;;;;;;;;;;;;;;1.57;100.00;99026.73;1640386;86;21172;-74
2021/12/31 12:12:32;;;;;;;;;;;;;;;1.58;100.00;99032.42;1649960;85;20519;-72
2021/12/31 12:15:01;;;;;;;;;;;;;;;1.59;100.00;99028.62;1636949;85;20088;-77
2021/12/31 12:17:36;;;;;;;;;;;;;;;1.59;100.00;99024.58;1652483;85;20144;-74
2021/12/31 12:20:06;;;;;;;;;;;;;;;1.57;100.00;99032.95;1644000;85;20146;-72
2021/12/31 12:22:38;;;;;;;;;;;;;;;1.56;100.00;99030.52;1633813;86;21110;-74
2021/12/31 12:25:13;;;;;;;;;;;;;;;1.54;100.00;99019.16;1612042;85;20468;-82
2021/12/31 12:27:38;;;;;;;;;;;;;;;1.54;100.00;99010.50;1652081;85;20149;-76
2021/12/31 12:30:07;;;;;;;;;;;;;;;1.56;100.00;99004.82;1651757;85;20111;-78
2021/12/31 12:32:38;;;;;;;;;;;;;;;1.56;100.00;99006.98;1653212;85;20097;-74
2021/12/31 12:35:23;;;;;;;;;;;;;;;1.55;100.00;99004.55;1650718;85;21154;-76
2021/12/31 12:38:01;;;;;;;;;;;;;;;1.53;100.00;99008.06;1651787;85;20143;-77
2021/12/31 12:40:42;;;;;;;;;;;;;;;1.49;100.00;99002.92;1637741;84;20180;-71
2021/12/31 12:43:14;;;;;;;;;;;;;;;1.43;100.00;98995.88;1623218;86;20162;-78
2021/12/31 12:45:42;;;;;;;;;;;;;;;1.36;100.00;98991.28;1636683;85;20450;-76
2021/12/31 12:48:08;;;;;;;;;;;;;;;1.32;100.00;98989.65;1637558;86;21984;-81
2021/12/31 12:50:45;;;;;;;;;;;;;;;1.27;100.00;98991.80;1618288;88;20094;-79
2021/12/31 12:53:13;;;;;;;;;;;;;;;1.25;100.00;98995.86;1624317;87;20113;-80
2021/12/31 12:55:41;;;;;;;;;;;;;;;1.23;100.00;98994.77;1635045;85;20710;-82
2021/12/31 12:58:29;;;;;;;;;;;;;;;1.22;100.00;99001.80;1640123;85;20189;-78
2021/12/31 13:01:03;;;;;;;;;;;;;;;1.19;100.00;98999.09;1599594;87;21691;-80
2021/12/31 13:03:29;;;;;;;;;;;;;;;1.17;100.00;98999.90;1608522;88;20157;-78
2021/12/31 13:06:03;;;;;;;;;;;;;;;1.15;100.00;98993.98;1653888;84;20103;-76
2021/12/31 13:08:35;;;;;;;;;;;;;;;1.14;100.00;98986.95;1648483;85;20513;-79
2021/12/31 13:11:17;;;;;;;;;;;;;;;1.14;100.00;98987.48;1624120;87;20119;-71